Time;durP1;ratioP1;P1;durP2;ratioP2;P2;SDS_P1;SDS_P2;PMS_P1;PMS_P2;Temp;Humidity;BMP_temperature;BMP_pressure;BME280_temperature;BME280_humidity;BME280_pressure;Samples;Min_cycle;Max_cycle;Signal;HPM_P1;HPM_P2
2021/01/21 00:00:04;;;;;;;6.60;2.20;;;;;;;12.98;62.51;98470.41;5114425;28;20051;-76
2021/01/21 00:02:38;;;;;;;6.13;2.30;;;;;;;12.97;63.53;98460.50;5094569;28;20055;-74
2021/01/21 00:05:06;;;;;;;6.82;2.13;;;;;;;12.71;63.70;98468.22;5111693;28;20054;-74
2021/01/21 00:07:33;;;;;;;5.07;2.20;;;;;;;12.76;64.32;98465.09;5095225;28;20048;-73
2021/01/21 00:10:00;;;;;;;6.78;2.15;;;;;;;12.68;64.48;98480.00;5079370;28;20054;-73
2021/01/21 00:12:30;;;;;;;6.13;2.40;;;;;;;12.65;65.52;98458.69;5115973;28;20039;-75
2021/01/21 00:15:00;;;;;;;5.70;2.22;;;;;;;12.71;64.54;98457.16;5100534;28;20498;-74
2021/01/21 00:17:28;;;;;;;5.13;2.00;;;;;;;12.58;65.13;98467.72;5097955;28;20051;-73
2021/01/21 00:19:55;;;;;;;4.82;1.88;;;;;;;12.40;65.88;98475.03;5097367;28;20058;-74
2021/01/21 00:22:25;;;;;;;;;;;;;;;12.54;65.71;98480.69;5115444;28;20039;-73
2021/01/21 00:24:52;;;;;;;6.95;2.45;;;;;;;12.62;65.75;98453.94;5114749;28;19926;-73
2021/01/21 00:27:19;;;;;;;6.78;2.17;;;;;;;12.45;66.85;98482.94;5115672;28;20055;-75
2021/01/21 00:29:47;;;;;;;5.60;2.17;;;;;;;12.57;67.01;98479.13;5114234;28;20054;-74
2021/01/21 00:32:14;;;;;;;6.05;2.00;;;;;;;12.38;67.45;98482.88;5115078;28;20047;-75
2021/01/21 00:34:41;;;;;;;5.10;2.25;;;;;;;12.51;66.86;98467.63;5096818;28;20391;-76
2021/01/21 00:37:08;;;;;;;7.07;2.65;;;;;;;12.52;66.83;98485.78;5098068;28;20059;-74
2021/01/21 00:39:36;;;;;;;8.93;2.45;;;;;;;12.49;66.60;98478.28;5064907;28;20388;-73
2021/01/21 00:42:03;;;;;;;5.53;2.10;;;;;;;12.48;66.59;98481.41;5097657;28;20134;-75
2021/01/21 00:44:31;;;;;;;5.85;2.20;;;;;;;12.44;66.76;98462.84;5096713;28;20043;-74
2021/01/21 00:46:58;;;;;;;7.30;2.35;;;;;;;12.42;66.99;98478.19;5113671;28;20073;-76
2021/01/21 00:49:25;;;;;;;5.28;2.10;;;;;;;12.66;65.92;98463.81;5113786;28;20054;-74
2021/01/21 00:51:52;;;;;;;5.53;2.10;;;;;;;12.52;66.98;98460.16;5095416;28;20147;-75
2021/01/21 00:54:19;;;;;;;7.13;2.17;;;;;;;12.43;67.76;98464.00;5095837;28;20044;-75
2021/01/21 00:56:47;;;;;;;6.88;1.83;;;;;;;12.43;67.85;98455.72;5095439;28;20050;-75
2021/01/21 00:59:13;;;;;;;4.47;2.00;;;;;;;12.46;68.48;98451.44;5095912;28;20051;-77
2021/01/21 01:01:40;;;;;;;4.55;1.98;;;;;;;12.71;67.36;98454.41;5113270;28;20538;-75
2021/01/21 01:04:11;;;;;;;7.38;1.92;;;;;;;12.67;67.27;98459.91;5112836;28;20054;-75
2021/01/21 01:06:40;;;;;;;4.38;1.90;;;;;;;12.71;66.79;98457.16;5095532;28;20051;-76
2021/01/21 01:09:07;;;;;;;5.55;2.10;;;;;;;12.68;66.95;98442.13;5113945;28;20039;-75
2021/01/21 01:11:34;;;;;;;5.60;2.10;;;;;;;12.77;65.86;98447.34;5113530;28;20051;-74
2021/01/21 01:14:01;;;;;;;5.45;2.03;;;;;;;12.61;66.81;98439.31;5113275;28;20050;-74
2021/01/21 01:16:28;;;;;;;4.03;1.70;;;;;;;12.61;66.62;98453.13;5078135;28;20392;-76
2021/01/21 01:19:05;;;;;;;6.18;2.60;;;;;;;12.56;66.88;98455.44;5112909;28;20063;-75
2021/01/21 01:21:33;;;;;;;5.72;1.88;;;;;;;12.47;67.63;98464.03;5113166;28;20242;-76
2021/01/21 01:24:00;;;;;;;7.53;2.28;;;;;;;12.60;67.19;98470.09;5095196;28;20047;-75
2021/01/21 01:26:27;;;;;;;4.20;1.90;;;;;;;12.61;67.40;98452.31;5095128;28;20043;-76
2021/01/21 01:29:11;;;;;;;4.18;2.05;;;;;;;12.54;68.08;98457.78;5094474;28;20066;-75
2021/01/21 01:31:41;;;;;;;6.63;2.28;;;;;;;12.48;67.93;98459.31;5077778;28;20044;-74
2021/01/21 01:34:08;;;;;;;6.15;1.98;;;;;;;12.55;67.97;98449.16;5094735;28;20483;-75
2021/01/21 01:36:54;;;;;;;5.90;1.77;;;;;;;12.48;68.54;98449.84;5112405;28;20048;-75
2021/01/21 01:39:22;;;;;;;4.00;1.60;;;;;;;12.59;68.05;98438.91;5095245;28;20486;-77
2021/01/21 01:41:54;;;;;;;7.70;2.13;;;;;;;12.60;68.06;98461.78;5077886;28;20065;-76
2021/01/21 01:44:21;;;;;;;7.10;1.50;;;;;;;12.72;68.12;98448.50;5113920;28;20047;-76
2021/01/21 01:46:49;;;;;;;4.43;1.58;;;;;;;12.44;68.45;98456.53;5079175;28;20048;-76
2021/01/21 01:49:20;;;;;;;4.03;1.73;;;;;;;12.51;68.70;98464.06;5079325;28;20056;-73
2021/01/21 01:51:49;;;;;;;6.25;2.40;;;;;;;12.48;68.99;98459.31;5095749;28;20407;-73
2021/01/21 01:54:18;;;;;;;4.22;1.65;;;;;;;12.69;69.17;98478.84;5114134;28;20055;-77
2021/01/21 01:56:53;;;;;;;5.57;1.90;;;;;;;12.51;68.76;98467.63;5077887;28;20047;-73
2021/01/21 01:59:30;;;;;;;8.02;2.17;;;;;;;12.73;68.77;98474.13;5059919;28;20431;-77
2021/01/21 02:02:01;;;;;;;4.38;1.70;;;;;;;12.72;68.98;98472.56;5076076;28;20459;-76
2021/01/21 02:04:32;;;;;;;6.40;1.85;;;;;;;12.79;68.85;98469.84;5093366;28;20495;-74
2021/01/21 02:07:28;;;;;;;5.13;1.88;;;;;;;12.64;69.31;98481.97;5074374;28;20052;-72
2021/01/21 02:10:09;;;;;;;4.22;1.48;;;;;;;12.65;69.29;98465.00;5043159;28;20055;-70
2021/01/21 02:13:00;;;;;;;7.78;1.70;;;;;;;12.66;69.65;98457.53;5094648;28;20052;-73
2021/01/21 02:16:23;;;;;;;7.25;1.52;;;;;;;12.73;68.98;98483.22;5113646;28;20055;-71
2021/01/21 02:18:56;;;;;;;8.80;1.70;;;;;;;12.68;69.28;98477.25;5033915;28;20064;-73
2021/01/21 02:21:47;;;;;;;7.15;1.40;;;;;;;12.74;69.39;98484.81;5033432;28;20524;-73
2021/01/21 02:24:42;;;;;;;4.65;1.60;;;;;;;12.94;68.76;98493.66;5050071;28;20048;-72
2021/01/21 02:27:11;;;;;;;5.18;1.02;;;;;;;12.87;68.89;98499.13;5017776;28;20045;-76
2021/01/21 02:29:43;;;;;;;6.78;1.50;;;;;;;12.83;69.45;98499.06;5018118;28;20479;-71
2021/01/21 02:32:37;;;;;;;6.63;1.80;;;;;;;12.89;69.63;98499.53;5000843;28;20440;-74
2021/01/21 02:35:17;;;;;;;5.20;1.17;;;;;;;12.80;70.69;98488.81;5018626;28;20057;-73
2021/01/21 02:37:54;;;;;;;4.50;1.48;;;;;;;12.64;71.81;98477.22;5018171;28;20520;-73
2021/01/21 02:40:26;;;;;;;6.38;1.42;;;;;;;12.72;71.88;98489.94;5032912;28;20153;-71
2021/01/21 02:43:15;;;;;;;2.77;1.07;;;;;;;12.72;72.26;98494.66;5000353;28;20064;-72
2021/01/21 02:45:47;;;;;;;5.57;1.25;;;;;;;12.59;72.57;98507.94;5014397;28;20061;-74
2021/01/21 02:48:17;;;;;;;3.53;1.15;;;;;;;12.74;72.48;98500.59;5030712;28;20065;-72
2021/01/21 02:50:59;;;;;;;3.28;1.08;;;;;;;12.69;73.41;98716.41;5013539;28;20505;-70
2021/01/21 02:53:27;;;;;;;2.15;0.70;;;;;;;11.44;72.07;98747.94;5057013;28;20051;-72
2021/01/21 02:56:00;;;;;;;6.63;0.50;;;;;;;9.33;78.24;98754.22;5078012;28;20051;-73
2021/01/21 02:58:36;;;;;;;3.90;0.70;;;;;;;8.88;79.13;98735.38;5089000;28;20043;-72
2021/01/21 03:01:11;;;;;;;4.13;0.50;;;;;;;9.00;80.14;98740.00;5100385;28;20048;-70
2021/01/21 03:03:40;;;;;;;5.18;0.45;;;;;;;9.04;79.76;98752.69;5066436;28;20055;-75
2021/01/21 03:06:13;;;;;;;1.73;0.30;;;;;;;8.83;79.70;98752.09;5083232;28;20053;-77
2021/01/21 03:08:41;;;;;;;2.85;0.50;;;;;;;8.71;81.20;98745.84;5113524;28;20063;-77
2021/01/21 03:11:13;;;;;;;2.00;0.70;;;;;;;8.84;82.44;98756.44;5115420;28;20040;-73
2021/01/21 03:13:45;;;;;;;3.83;0.50;;;;;;;8.70;80.02;98775.22;5098045;28;20047;-76
2021/01/21 03:16:17;;;;;;;1.35;0.40;;;;;;;8.44;80.54;98788.56;5116360;28;20063;-74
2021/01/21 03:18:56;;;;;;;4.25;0.70;;;;;;;8.40;80.78;98781.38;5098120;28;20056;-75
2021/01/21 03:21:26;;;;;;;2.75;0.50;;;;;;;8.35;80.74;98796.13;5098878;28;20048;-75
2021/01/21 03:24:01;;;;;;;1.80;0.40;;;;;;;8.29;79.48;98805.75;5099217;28;20073;-74
2021/01/21 03:26:51;;;;;;;0.28;0.20;;;;;;;8.06;80.16;98822.97;5033943;28;20058;-77
2021/01/21 03:29:20;;;;;;;4.63;0.60;;;;;;;8.47;81.57;98826.28;5037915;28;20052;-78
2021/01/21 03:31:48;;;;;;;4.10;0.68;;;;;;;8.31;79.46;98827.34;5017122;28;20088;-76
2021/01/21 03:34:17;;;;;;;2.72;0.50;;;;;;;8.41;80.46;98827.66;5033658;28;20558;-73
2021/01/21 03:36:52;;;;;;;1.45;0.38;;;;;;;8.46;79.38;98835.66;5033517;28;20045;-78
2021/01/21 03:39:19;;;;;;;3.65;1.10;;;;;;;8.52;78.92;98844.47;5034282;28;20057;-73
2021/01/21 03:42:18;;;;;;;3.42;0.40;;;;;;;8.28;80.03;98871.91;4957713;28;20055;-75
2021/01/21 03:45:02;;;;;;;1.50;0.40;;;;;;;8.25;79.80;98870.66;4941658;29;20063;-77
2021/01/21 03:47:30;;;;;;;3.25;0.65;;;;;;;8.10;79.87;98881.47;4939108;29;20399;-77
2021/01/21 03:50:02;;;;;;;3.92;0.80;;;;;;;8.20;79.27;98890.03;4956134;28;20537;-78
2021/01/21 03:52:34;;;;;;;5.68;0.63;;;;;;;8.27;79.29;98875.78;4952015;28;20074;-77
2021/01/21 03:55:07;;;;;;;6.15;0.57;;;;;;;8.14;79.60;98866.75;4942766;28;20050;-77
2021/01/21 03:57:34;;;;;;;6.00;0.95;;;;;;;8.41;79.52;98887.22;4957250;28;20059;-74
2021/01/21 04:00:28;;;;;;;8.90;1.35;;;;;;;8.27;78.12;98879.34;4957532;28;20565;-79
2021/01/21 04:02:58;;;;;;;8.18;1.40;;;;;;;8.28;78.57;98877.41;4947179;28;20052;-77
2021/01/21 04:05:38;;;;;;;6.60;1.02;;;;;;;8.31;78.56;98883.00;5017902;28;20088;-75
2021/01/21 04:08:05;;;;;;;5.60;0.88;;;;;;;8.41;78.19;98887.22;5033066;28;20072;-77
2021/01/21 04:10:41;;;;;;;9.20;1.27;;;;;;;8.54;77.62;98880.59;5032295;28;20049;-72
2021/01/21 04:13:14;;;;;;;6.80;1.08;;;;;;;8.58;77.21;98890.53;5032578;28;20064;-77
2021/01/21 04:15:42;;;;;;;9.00;1.75;;;;;;;8.82;76.10;98889.69;5016366;28;20053;-77
2021/01/21 04:18:09;;;;;;;7.25;0.95;;;;;;;8.83;75.82;98896.78;5025441;28;20040;-76
2021/01/21 04:20:59;;;;;;;7.95;1.38;;;;;;;8.75;74.75;98911.44;5064485;28;20044;-77
2021/01/21 04:23:26;;;;;;;11.07;1.13;;;;;;;8.64;75.18;98919.34;5063841;28;20043;-75
2021/01/21 04:25:54;;;;;;;5.28;0.85;;;;;;;8.77;74.77;98925.63;5113651;28;20047;-75
2021/01/21 04:28:23;;;;;;;8.75;1.05;;;;;;;8.60;74.27;98939.56;5121697;27;20055;-76
2021/01/21 04:30:52;;;;;;;8.10;1.20;;;;;;;8.58;74.81;98934.44;5100422;27;20047;-76
2021/01/21 04:33:19;;;;;;;8.13;1.10;;;;;;;8.82;74.04;98942.63;5099648;27;20410;-76
2021/01/21 04:35:48;;;;;;;8.95;1.23;;;;;;;8.70;74.38;98947.38;5101406;27;20048;-77
2021/01/21 04:38:15;;;;;;;5.75;1.10;;;;;;;8.60;73.88;98954.09;5117374;27;20404;-73
2021/01/21 04:40:53;;;;;;;6.82;1.38;;;;;;;8.45;74.07;98963.03;5086194;28;20048;-76
2021/01/21 04:43:39;;;;;;;5.97;1.05;;;;;;;8.42;75.55;98969.16;5100295;28;20047;-75
2021/01/21 04:46:19;;;;;;;10.55;1.20;;;;;;;8.52;75.26;98976.16;5081631;28;20054;-77
2021/01/21 04:48:51;;;;;;;5.85;1.13;;;;;;;8.44;75.28;98994.31;5115633;28;20487;-78
2021/01/21 04:51:20;;;;;;;7.85;1.02;;;;;;;8.46;76.07;98992.03;5079877;28;20051;-76
2021/01/21 04:53:59;;;;;;;8.27;1.08;;;;;;;8.39;75.87;99002.78;5064885;28;20046;-77
2021/01/21 04:56:49;;;;;;;8.95;1.20;;;;;;;8.35;75.95;99004.59;5092128;28;20055;-71
2021/01/21 04:59:19;;;;;;;9.68;1.13;;;;;;;8.40;75.50;99007.16;5114585;28;20047;-72
2021/01/21 05:01:50;;;;;;;7.18;1.05;;;;;;;8.61;74.96;99001.56;5096571;28;20055;-77
2021/01/21 05:04:21;;;;;;;4.57;1.03;;;;;;;8.59;74.28;99010.13;5113766;28;20503;-75
2021/01/21 05:07:21;;;;;;;7.22;1.20;;;;;;;8.50;74.58;99003.13;5014798;28;20762;-75
2021/01/21 05:09:48;;;;;;;8.30;1.00;;;;;;;8.54;74.61;99007.59;5014181;28;20046;-76
2021/01/21 05:12:19;;;;;;;6.95;0.85;;;;;;;8.59;74.70;99010.13;4995722;28;20048;-74
2021/01/21 05:15:07;;;;;;;11.93;1.63;;;;;;;8.60;74.49;99016.41;4998731;28;20050;-76
2021/01/21 05:17:59;;;;;;;9.98;0.93;;;;;;;8.57;74.59;99008.88;4992287;28;20054;-72
2021/01/21 05:20:45;;;;;;;8.85;1.55;;;;;;;8.68;74.21;99013.56;4991463;28;20085;-75
2021/01/21 05:23:35;;;;;;;9.52;1.38;;;;;;;8.52;73.76;99018.13;4990831;28;20069;-77
2021/01/21 05:26:11;;;;;;;9.35;1.70;;;;;;;8.52;74.56;99033.78;4975251;28;20051;-75
2021/01/21 05:28:52;;;;;;;;;;;;;;;8.55;74.17;99038.59;4977456;28;20063;-70
2021/01/21 05:31:33;;;;;;;8.02;1.20;;;;;;;8.43;73.76;99044.06;4975006;28;19933;-75
2021/01/21 05:34:04;;;;;;;7.85;1.08;;;;;;;8.42;74.60;99046.00;4991511;28;20054;-75
2021/01/21 05:36:48;;;;;;;7.20;1.00;;;;;;;8.49;74.02;99045.44;4991228;28;20050;-76
2021/01/21 05:39:20;;;;;;;8.98;1.10;;;;;;;8.35;73.63;99053.97;4990999;28;20046;-76
2021/01/21 05:42:19;;;;;;;8.68;1.40;;;;;;;8.51;73.91;99057.66;4990806;28;20095;-72
2021/01/21 05:44:59;;;;;;;12.20;1.20;;;;;;;8.30;74.20;99056.16;5033949;28;20474;-72
2021/01/21 05:47:43;;;;;;;7.68;1.08;;;;;;;8.30;74.18;99069.88;5033181;28;20049;-74
2021/01/21 05:50:11;;;;;;;8.40;1.38;;;;;;;8.26;74.45;99068.94;5050591;28;20519;-74
2021/01/21 05:52:38;;;;;;;7.65;1.10;;;;;;;8.35;73.97;99073.19;5033580;28;20049;-75
2021/01/21 05:55:07;;;;;;;6.68;1.25;;;;;;;8.33;73.78;99078.22;5061986;28;20056;-76
2021/01/21 05:57:48;;;;;;;5.40;1.00;;;;;;;8.34;73.79;99076.25;5057239;28;20047;-71
2021/01/21 06:00:17;;;;;;;8.88;1.67;;;;;;;8.48;73.67;99074.81;5041472;28;20059;-70
2021/01/21 06:02:52;;;;;;;7.72;1.27;;;;;;;8.44;72.85;99084.88;5091934;28;20372;-74
2021/01/21 06:05:42;;;;;;;7.13;0.90;;;;;;;8.31;73.93;99091.47;5092388;28;20051;-70
2021/01/21 06:08:11;;;;;;;6.32;1.15;;;;;;;8.57;72.90;99083.78;5092337;28;20059;-72
2021/01/21 06:10:38;;;;;;;6.38;1.00;;;;;;;8.39;73.21;99096.06;5092277;28;20045;-70
2021/01/21 06:13:06;;;;;;;6.32;0.85;;;;;;;8.43;72.97;99098.94;5092575;28;20044;-71
2021/01/21 06:15:33;;;;;;;8.82;1.20;;;;;;;8.39;72.54;99106.22;5091164;28;20055;-75
2021/01/21 06:18:00;;;;;;;7.93;1.25;;;;;;;8.33;72.89;99105.66;5092218;28;20392;-72
2021/01/21 06:20:50;;;;;;;6.32;1.30;;;;;;;8.19;73.04;99116.09;5010415;28;20068;-73
2021/01/21 06:23:52;;;;;;;8.30;1.30;;;;;;;8.23;73.02;99122.47;4993326;28;20592;-75
2021/01/21 06:26:35;;;;;;;8.60;1.05;;;;;;;8.10;73.65;99126.31;4993714;28;20046;-72
2021/01/21 06:29:04;;;;;;;4.95;1.17;;;;;;;8.11;73.36;99119.69;5012756;28;20068;-71
2021/01/21 06:31:32;;;;;;;9.57;1.60;;;;;;;8.07;74.00;99124.25;4997478;28;20061;-72
2021/01/21 06:33:59;;;;;;;11.50;2.05;;;;;;;8.20;73.53;99138.81;5013504;28;20057;-73
2021/01/21 06:36:29;;;;;;;6.18;1.38;;;;;;;8.23;73.79;99138.94;5007283;28;20046;-72
2021/01/21 06:38:59;;;;;;;7.47;1.10;;;;;;;7.86;73.61;99140.69;4997489;28;20050;-73
2021/01/21 06:41:28;;;;;;;13.45;2.05;;;;;;;8.04;73.81;99138.59;4996771;28;20061;-72
2021/01/21 06:43:56;;;;;;;8.15;1.75;;;;;;;8.00;73.65;99135.75;4995921;28;20062;-73
2021/01/21 06:46:23;;;;;;;6.13;1.27;;;;;;;8.05;73.97;99142.97;4995011;28;20054;-73
2021/01/21 06:48:50;;;;;;;7.25;1.40;;;;;;;7.96;73.45;99144.97;4994124;28;20050;-72
2021/01/21 06:51:18;;;;;;;6.95;1.00;;;;;;;8.05;73.76;99142.97;4994139;28;20398;-80
2021/01/21 06:53:46;;;;;;;8.02;0.95;;;;;;;8.00;73.64;99151.41;4994603;28;20560;-69
2021/01/21 06:56:13;;;;;;;10.45;1.38;;;;;;;7.94;73.79;99155.47;4994283;28;20086;-70
2021/01/21 06:58:51;;;;;;;7.90;1.20;;;;;;;8.05;73.39;99159.44;5057519;28;20059;-73
2021/01/21 07:01:30;;;;;;;13.55;1.65;;;;;;;8.12;73.52;99158.88;5055856;28;20052;-74
2021/01/21 07:04:10;;;;;;;8.60;1.23;;;;;;;8.01;73.59;99166.72;5115399;28;20051;-74
2021/01/21 07:06:51;;;;;;;9.45;1.10;;;;;;;8.12;73.44;99169.84;5108593;28;20051;-71
2021/01/21 07:09:27;;;;;;;6.22;1.05;;;;;;;8.00;74.18;99168.63;5111797;28;20070;-72
2021/01/21 07:11:57;;;;;;;7.60;1.52;;;;;;;7.95;73.99;99170.78;5113781;28;20048;-75
2021/01/21 07:14:29;;;;;;;8.65;1.48;;;;;;;7.80;74.43;99169.44;5094967;28;20074;-73
2021/01/21 07:17:01;;;;;;;16.65;2.90;;;;;;;7.74;74.62;99169.97;5096354;28;20047;-76
2021/01/21 07:19:45;;;;;;;15.30;6.05;;;;;;;7.86;73.95;99179.06;5099288;28;20063;-75
2021/01/21 07:22:17;;;;;;;7.93;1.67;;;;;;;7.88;74.30;99179.53;5114278;28;20391;-74
2021/01/21 07:24:48;;;;;;;6.22;1.30;;;;;;;7.95;74.02;99184.47;5113554;28;20043;-75
2021/01/21 07:27:19;;;;;;;10.00;1.48;;;;;;;7.94;74.01;99186.44;5097335;28;20048;-73
2021/01/21 07:29:46;;;;;;;8.70;1.30;;;;;;;7.82;74.14;99182.81;5113663;28;20615;-73
2021/01/21 07:32:15;;;;;;;10.27;2.60;;;;;;;7.82;74.53;99185.56;5077274;28;20044;-74
2021/01/21 07:34:43;;;;;;;10.10;2.60;;;;;;;7.98;74.21;99184.63;5095255;28;20406;-77
2021/01/21 07:37:11;;;;;;;9.35;1.52;;;;;;;8.04;74.06;99181.69;5096194;28;20407;-75
2021/01/21 07:40:03;;;;;;;9.75;1.50;;;;;;;8.04;73.84;99193.44;5112687;28;20471;-77
2021/01/21 07:42:32;;;;;;;9.35;1.67;;;;;;;8.04;74.29;99189.94;5113092;28;20406;-77
2021/01/21 07:45:06;;;;;;;12.48;3.60;;;;;;;7.86;74.27;99194.72;5112976;28;20062;-76
2021/01/21 07:47:34;;;;;;;11.40;2.63;;;;;;;8.13;74.13;99205.16;5113726;28;20047;-77
2021/01/21 07:50:14;;;;;;;15.20;6.32;;;;;;;8.04;74.31;99212.66;5114836;28;20067;-79
2021/01/21 07:52:57;;;;;;;8.82;2.22;;;;;;;8.07;73.99;99206.50;5114568;28;20043;-79
2021/01/21 07:55:51;;;;;;;14.90;2.90;;;;;;;8.26;73.46;99206.88;5096741;28;20056;-78
2021/01/21 07:58:27;;;;;;;18.20;6.28;;;;;;;8.30;73.59;99204.28;5113032;28;20059;-75
2021/01/21 08:00:55;;;;;;;20.73;6.65;;;;;;;8.29;74.10;99202.66;5094878;28;20048;-80
2021/01/21 08:03:36;;;;;;;8.82;1.85;;;;;;;8.35;73.72;99204.06;5094408;28;20526;-76
2021/01/21 08:06:05;;;;;;;10.38;1.80;;;;;;;8.27;73.66;99202.19;5093757;28;20063;-76
2021/01/21 08:08:32;;;;;;;13.25;1.95;;;;;;;8.21;73.78;99196.06;5094619;28;20099;-76
2021/01/21 08:11:31;;;;;;;10.93;1.83;;;;;;;8.28;74.78;99210.06;5078115;28;20048;-72
2021/01/21 08:13:58;;;;;;;16.70;2.08;;;;;;;8.30;73.86;99205.06;5013119;28;20054;-73
2021/01/21 08:16:26;;;;;;;7.28;1.40;;;;;;;8.56;72.82;99205.63;5020814;28;20052;-75
2021/01/21 08:19:00;;;;;;;8.63;1.40;;;;;;;8.24;73.10;99202.84;5007995;28;20056;-73
2021/01/21 08:21:28;;;;;;;9.93;1.80;;;;;;;8.23;73.49;99209.47;5036034;28;20064;-76
2021/01/21 08:23:59;;;;;;;14.27;1.92;;;;;;;8.28;72.77;99212.03;5033298;28;20544;-74
2021/01/21 08:26:28;;;;;;;10.50;1.90;;;;;;;8.23;73.41;99218.47;5019658;28;20441;-74
2021/01/21 08:28:56;;;;;;;10.27;1.90;;;;;;;8.34;72.89;99211.50;5015320;28;20045;-74
2021/01/21 08:31:45;;;;;;;7.75;1.55;;;;;;;8.40;72.49;99225.81;5031763;28;20375;-71
2021/01/21 08:34:19;;;;;;;13.60;2.00;;;;;;;8.48;72.91;99233.97;5015242;28;20493;-71
2021/01/21 08:36:46;;;;;;;11.85;1.80;;;;;;;8.64;72.65;99223.19;5015608;28;20400;-72
2021/01/21 08:39:13;;;;;;;11.05;1.67;;;;;;;8.81;71.60;99221.06;5020572;28;20058;-71
2021/01/21 08:41:41;;;;;;;7.30;1.63;;;;;;;8.91;71.13;99223.38;5026719;28;20152;-71
2021/01/21 08:44:14;;;;;;;12.60;2.22;;;;;;;8.93;71.32;99232.09;5025072;28;20049;-71
2021/01/21 08:46:41;;;;;;;10.40;2.08;;;;;;;8.87;70.78;99230.69;5027351;28;20052;-71
2021/01/21 08:49:11;;;;;;;18.13;3.80;;;;;;;9.04;70.50;99241.53;5029067;28;20608;-74
2021/01/21 08:51:41;;;;;;;12.85;2.78;;;;;;;9.28;70.11;99240.75;5071745;28;20062;-73
2021/01/21 08:54:19;;;;;;;11.40;2.53;;;;;;;8.98;69.70;99244.78;5093986;28;20056;-72
2021/01/21 08:57:08;;;;;;;12.82;2.00;;;;;;;9.01;69.89;99233.16;5092376;28;20044;-70
2021/01/21 08:59:37;;;;;;;13.52;2.10;;;;;;;9.08;69.87;99234.19;5092432;28;20491;-73
2021/01/21 09:02:05;;;;;;;10.07;1.95;;;;;;;9.29;69.76;99238.81;5075128;28;20044;-69
2021/01/21 09:04:37;;;;;;;14.23;2.50;;;;;;;9.13;69.75;99242.22;5003966;28;20060;-69
2021/01/21 09:07:06;;;;;;;10.35;2.33;;;;;;;9.18;69.56;99238.47;5060219;28;20039;-70
2021/01/21 09:09:34;;;;;;;20.42;2.00;;;;;;;8.77;70.47;99247.59;5077245;28;20045;-70
2021/01/21 09:12:22;;;;;;;23.35;3.92;;;;;;;8.95;70.29;99242.72;5074849;28;20043;-76
2021/01/21 09:15:03;;;;;;;11.98;2.00;;;;;;;9.01;70.62;99247.66;5091676;28;20066;-77
2021/01/21 09:17:31;;;;;;;10.75;2.30;;;;;;;9.19;69.52;99244.75;5092392;28;20056;-76
2021/01/21 09:19:59;;;;;;;9.38;2.08;;;;;;;9.43;69.54;99258.53;5074521;28;20067;-74
2021/01/21 09:22:37;;;;;;;11.52;1.77;;;;;;;9.54;69.18;99248.69;5075531;28;20047;-75
2021/01/21 09:25:08;;;;;;;13.57;2.38;;;;;;;9.22;69.80;99253.13;5092122;28;20048;-76
2021/01/21 09:27:51;;;;;;;10.48;1.75;;;;;;;9.37;70.03;99260.72;5092876;28;20047;-78
2021/01/21 09:30:18;;;;;;;11.35;1.88;;;;;;;9.39;70.20;99261.19;5075046;28;20040;-78
2021/01/21 09:32:45;;;;;;;16.30;2.88;;;;;;;9.30;69.92;99260.47;5092878;28;20510;-72
2021/01/21 09:35:17;;;;;;;15.30;2.25;;;;;;;9.29;70.57;99269.84;5091217;28;20056;-78
2021/01/21 09:37:49;;;;;;;13.67;2.00;;;;;;;9.21;71.17;99259.75;5091672;28;20059;-79
2021/01/21 09:40:24;;;;;;;18.65;2.97;;;;;;;8.98;72.13;99264.84;5049938;28;20036;-78
2021/01/21 09:42:55;;;;;;;12.88;2.20;;;;;;;9.15;72.17;99263.06;5092703;28;20052;-77
2021/01/21 09:45:24;;;;;;;13.07;2.35;;;;;;;9.49;71.36;99260.72;5072887;28;20078;-78
2021/01/21 09:47:52;;;;;;;12.40;2.37;;;;;;;9.26;71.90;99267.78;5091829;28;20047;-78
2021/01/21 09:50:20;;;;;;;16.75;3.25;;;;;;;9.34;71.88;99269.63;5089458;28;20371;-77
2021/01/21 09:52:47;;;;;;;15.80;2.03;;;;;;;9.43;71.56;99264.81;5091310;28;20052;-76
2021/01/21 09:55:15;;;;;;;15.48;2.58;;;;;;;9.49;71.08;99268.97;5074981;28;20491;-75
2021/01/21 09:57:42;;;;;;;16.40;2.75;;;;;;;9.67;70.83;99266.81;5073968;28;20040;-75
2021/01/21 10:00:11;;;;;;;14.80;2.80;;;;;;;9.72;70.19;99267.41;5094479;28;20051;-77
2021/01/21 10:02:40;;;;;;;15.23;2.80;;;;;;;9.67;70.18;99273.13;5068512;28;20064;-76
2021/01/21 10:05:07;;;;;;;23.45;3.13;;;;;;;9.60;70.73;99269.34;5054859;28;20048;-79
2021/01/21 10:07:34;;;;;;;20.08;3.38;;;;;;;9.63;71.11;99258.44;5087056;28;20495;-79
2021/01/21 10:10:02;;;;;;;17.67;2.70;;;;;;;9.69;70.49;99254.31;5092597;28;20051;-79
2021/01/21 10:12:29;;;;;;;19.42;3.08;;;;;;;9.68;70.57;99260.16;5093170;28;20048;-74
2021/01/21 10:14:58;;;;;;;18.35;3.70;;;;;;;9.68;70.16;99260.16;5066473;28;20052;-79
2021/01/21 10:17:27;;;;;;;21.67;4.55;;;;;;;9.68;70.66;99260.97;5088089;28;20044;-77
2021/01/21 10:19:54;;;;;;;18.33;4.03;;;;;;;9.81;70.84;99251.59;5083332;28;20143;-78
2021/01/21 10:22:21;;;;;;;21.75;5.03;;;;;;;9.65;70.31;99258.09;5083718;28;20514;-76
2021/01/21 10:24:48;;;;;;;15.82;4.90;;;;;;;9.73;70.75;99259.94;5087711;28;20056;-77
2021/01/21 10:27:15;;;;;;;24.15;4.90;;;;;;;9.74;70.57;99254.13;5052083;28;20063;-76
2021/01/21 10:29:42;;;;;;;26.45;5.20;;;;;;;9.89;70.68;99249.84;5090423;28;20052;-77
2021/01/21 10:32:09;;;;;;;22.10;4.80;;;;;;;9.83;70.42;99254.00;5067883;28;20041;-74
2021/01/21 10:34:37;;;;;;;27.52;4.90;;;;;;;10.00;70.09;99246.31;5070344;28;20044;-77
2021/01/21 10:37:04;;;;;;;17.17;4.07;;;;;;;9.78;70.80;99244.00;5090411;28;20403;-78
2021/01/21 10:39:31;;;;;;;18.42;3.20;;;;;;;9.90;70.94;99245.97;5082559;28;20048;-78
2021/01/21 10:41:58;;;;;;;21.45;3.10;;;;;;;10.17;70.15;99235.09;5082466;28;20055;-77
2021/01/21 10:44:25;;;;;;;18.67;3.78;;;;;;;10.06;69.99;99235.84;5081992;28;20063;-75
2021/01/21 10:46:58;;;;;;;18.38;3.08;;;;;;;10.04;70.34;99238.19;5077574;28;20074;-72
2021/01/21 10:49:27;;;;;;;17.58;2.70;;;;;;;9.88;70.62;99243.56;5081912;28;20652;-78
2021/01/21 10:51:58;;;;;;;16.73;2.58;;;;;;;10.16;70.17;99243.69;5079107;28;20044;-73
2021/01/21 10:54:29;;;;;;;20.98;3.00;;;;;;;10.12;69.73;99240.03;5090633;28;20487;-75
2021/01/21 10:56:56;;;;;;;19.00;3.20;;;;;;;9.94;70.80;99235.88;5089109;28;20059;-77
2021/01/21 10:59:23;;;;;;;18.83;3.28;;;;;;;9.94;70.95;99246.88;5079101;28;20395;-74
2021/01/21 11:01:58;;;;;;;14.40;3.10;;;;;;;10.11;70.84;99243.94;5087936;28;20056;-76
2021/01/21 11:04:30;;;;;;;14.93;2.63;;;;;;;10.13;70.27;99234.16;5093072;28;20047;-76
2021/01/21 11:06:57;;;;;;;17.27;3.00;;;;;;;10.20;70.38;99230.81;5091484;28;20063;-75
2021/01/21 11:09:35;;;;;;;18.65;3.38;;;;;;;10.16;70.87;99233.47;5089289;28;20074;-74
2021/01/21 11:12:03;;;;;;;14.05;2.80;;;;;;;10.14;70.56;99230.28;5087437;28;20051;-78
2021/01/21 11:14:31;;;;;;;20.67;2.97;;;;;;;10.17;70.40;99235.09;5080765;28;20040;-77
2021/01/21 11:16:59;;;;;;;19.42;4.10;;;;;;;10.23;70.43;99221.91;5087987;28;20055;-75
2021/01/21 11:19:26;;;;;;;15.50;3.15;;;;;;;10.17;70.37;99217.75;5085433;28;20044;-77
2021/01/21 11:21:54;;;;;;;21.38;3.83;;;;;;;10.40;69.86;99215.31;5087024;28;20415;-73
2021/01/21 11:24:27;;;;;;;21.20;5.13;;;;;;;10.64;69.43;99210.53;5083734;28;20047;-71
2021/01/21 11:26:53;;;;;;;22.27;3.20;;;;;;;10.35;69.10;99212.81;5087362;28;20368;-70
2021/01/21 11:29:20;;;;;;;23.38;3.25;;;;;;;10.51;69.33;99199.91;5086628;28;20040;-69
2021/01/21 11:32:10;;;;;;;22.67;4.50;;;;;;;10.49;69.65;99197.50;5075029;28;20056;-75
2021/01/21 11:34:40;;;;;;;25.42;4.45;;;;;;;10.65;68.89;99187.31;5056685;28;20479;-72
2021/01/21 11:37:06;;;;;;;22.52;3.15;;;;;;;10.81;68.68;99188.19;5056332;28;20488;-72
2021/01/21 11:39:33;;;;;;;19.75;2.95;;;;;;;10.95;67.50;99173.97;5092424;28;20055;-74
2021/01/21 11:42:02;;;;;;;23.58;3.03;;;;;;;10.91;67.16;99168.38;5094085;28;20126;-73
2021/01/21 11:44:30;;;;;;;13.15;2.65;;;;;;;11.04;66.66;99166.34;5078045;28;20074;-78
2021/01/21 11:46:56;;;;;;;20.17;3.65;;;;;;;10.91;66.77;99162.09;5091200;28;20059;-70
2021/01/21 11:49:23;;;;;;;17.38;3.88;;;;;;;10.99;66.52;99170.19;5094618;28;20052;-70
2021/01/21 11:51:50;;;;;;;16.63;4.32;;;;;;;10.95;66.71;99160.19;5094010;28;20377;-71
2021/01/21 11:54:17;;;;;;;22.83;3.80;;;;;;;10.85;66.78;99155.22;5095154;28;20368;-73
2021/01/21 11:56:44;;;;;;;15.63;3.70;;;;;;;10.82;67.03;99159.50;5081330;28;20483;-76
2021/01/21 11:59:11;;;;;;;19.48;3.38;;;;;;;10.99;66.65;99150.91;5096208;28;20056;-78
2021/01/21 12:01:38;;;;;;;22.80;3.13;;;;;;;11.05;65.71;99154.19;5094790;28;20071;-75